createdAt,value
2024-04-14T00:00:32.193Z,617.00
2024-04-14T00:01:32.308Z,616.00
2024-04-14T00:02:32.240Z,618.00
2024-04-14T00:03:32.330Z,620.00
2024-04-14T00:04:32.552Z,619.00
2024-04-14T00:05:32.379Z,620.00
2024-04-14T00:06:32.417Z,616.00
2024-04-14T00:07:32.445Z,616.00
2024-04-14T00:08:32.483Z,616.00
2024-04-14T00:09:32.571Z,619.00
2024-04-14T00:10:32.643Z,623.00
2024-04-14T00:11:32.602Z,618.00
2024-04-14T00:12:32.740Z,619.00
2024-04-14T00:13:32.699Z,619.00
2024-04-14T00:14:32.747Z,617.00
2024-04-14T00:15:32.834Z,620.00
2024-04-14T00:16:32.831Z,620.00
2024-04-14T00:17:32.944Z,622.00
2024-04-14T00:18:33.150Z,621.00
2024-04-14T00:19:33.040Z,617.00
2024-04-14T00:20:32.997Z,618.00
2024-04-14T00:21:33.074Z,616.00
2024-04-14T00:22:33.088Z,615.00
2024-04-14T00:23:33.130Z,617.00
2024-04-14T00:24:33.271Z,615.00
2024-04-14T00:25:33.223Z,616.00
2024-04-14T00:26:33.272Z,618.00
2024-04-14T00:27:33.364Z,618.00
2024-04-14T00:28:33.359Z,614.00
2024-04-14T00:29:33.402Z,616.00
2024-04-14T00:30:33.491Z,615.00
2024-04-14T00:31:33.494Z,616.00
2024-04-14T00:32:33.597Z,614.00
2024-04-14T00:33:33.622Z,613.00
2024-04-14T00:34:33.608Z,615.00
2024-04-14T00:35:33.680Z,613.00
2024-04-14T00:36:33.716Z,612.00
2024-04-14T00:37:33.725Z,614.00
2024-04-14T00:38:33.768Z,616.00
2024-04-14T00:39:33.919Z,615.00
2024-04-14T00:40:33.847Z,618.00
2024-04-14T00:41:33.890Z,618.00
2024-04-14T00:42:33.944Z,612.00
2024-04-14T00:43:33.968Z,614.00
2024-04-14T00:44:34.024Z,613.00
2024-04-14T00:45:34.071Z,614.00
2024-04-14T00:46:34.080Z,613.00
2024-04-14T00:47:34.150Z,614.00
2024-04-14T00:48:34.212Z,613.00
2024-04-14T00:49:34.237Z,612.00
2024-04-14T00:50:34.232Z,610.00
2024-04-14T00:51:34.293Z,615.00
2024-04-14T00:52:34.321Z,612.00
2024-04-14T00:53:34.355Z,616.00
2024-04-14T00:54:34.476Z,616.00
2024-04-14T00:55:34.429Z,614.00
2024-04-14T00:56:34.465Z,618.00
2024-04-14T00:57:34.594Z,615.00
2024-04-14T00:58:34.562Z,616.00
2024-04-14T00:59:34.619Z,617.00
2024-04-14T01:00:34.782Z,617.00
2024-04-14T01:01:34.774Z,616.00
2024-04-14T01:02:34.724Z,616.00
2024-04-14T01:03:35.002Z,615.00
2024-04-14T01:04:34.963Z,615.00
2024-04-14T01:05:34.866Z,617.00
2024-04-14T01:06:34.952Z,617.00
2024-04-14T01:07:34.942Z,615.00
2024-04-14T01:08:35.016Z,613.00
2024-04-14T01:09:35.048Z,616.00
2024-04-14T01:10:35.086Z,616.00
2024-04-14T01:11:35.104Z,617.00
2024-04-14T01:12:35.170Z,617.00
2024-04-14T01:13:35.184Z,617.00
2024-04-14T01:14:35.228Z,614.00
2024-04-14T01:15:35.291Z,619.00
2024-04-14T01:16:35.330Z,617.00
2024-04-14T01:17:35.408Z,617.00
2024-04-14T01:18:35.449Z,618.00
2024-04-14T01:19:35.531Z,617.00
2024-04-14T01:20:35.488Z,618.00
2024-04-14T01:21:35.552Z,618.00
2024-04-14T01:22:35.566Z,616.00
2024-04-14T01:23:35.604Z,616.00
2024-04-14T01:24:35.665Z,616.00
2024-04-14T01:25:35.687Z,618.00
2024-04-14T01:26:35.734Z,619.00
2024-04-14T01:27:35.786Z,617.00
2024-04-14T01:28:35.825Z,616.00
2024-04-14T01:29:35.922Z,617.00
2024-04-14T01:30:35.910Z,617.00
2024-04-14T01:31:35.947Z,614.00
2024-04-14T01:32:36.031Z,616.00
2024-04-14T01:33:36.069Z,617.00
2024-04-14T01:34:36.063Z,616.00
2024-04-14T01:35:36.112Z,611.00
2024-04-14T01:36:36.226Z,614.00
2024-04-14T01:37:36.194Z,616.00
2024-04-14T01:38:36.245Z,614.00
2024-04-14T01:39:36.303Z,615.00
2024-04-14T01:40:36.320Z,613.00
2024-04-14T01:41:36.369Z,614.00
2024-04-14T01:42:36.437Z,615.00
2024-04-14T01:43:36.480Z,613.00
2024-04-14T01:44:36.500Z,617.00
2024-04-14T01:45:36.599Z,613.00
2024-04-14T01:46:36.590Z,614.00
2024-04-14T01:47:36.737Z,614.00
2024-04-14T01:48:36.732Z,615.00
2024-04-14T01:49:36.727Z,615.00
2024-04-14T01:50:36.770Z,614.00
2024-04-14T01:51:36.817Z,615.00
2024-04-14T01:52:36.867Z,611.00
2024-04-14T01:53:36.895Z,612.00
2024-04-14T01:54:36.953Z,613.00
2024-04-14T01:55:37.012Z,614.00
2024-04-14T01:56:37.047Z,612.00
2024-04-14T01:57:37.160Z,615.00
2024-04-14T01:58:37.147Z,612.00
2024-04-14T01:59:37.202Z,612.00
2024-04-14T02:00:37.295Z,613.00
2024-04-14T02:01:37.365Z,613.00
2024-04-14T02:02:37.363Z,612.00
2024-04-14T02:03:37.470Z,609.00
2024-04-14T02:04:37.434Z,613.00
2024-04-14T02:05:37.458Z,611.00
2024-04-14T02:06:37.545Z,612.00
2024-04-14T02:07:37.550Z,611.00
2024-04-14T02:08:37.595Z,611.00
2024-04-14T02:09:37.707Z,608.00
2024-04-14T02:10:37.679Z,607.00
2024-04-14T02:11:37.725Z,610.00
2024-04-14T02:12:37.867Z,612.00
2024-04-14T02:13:37.824Z,611.00
2024-04-14T02:14:38.029Z,612.00
2024-04-14T02:15:37.984Z,609.00
2024-04-14T02:16:38.026Z,612.00
2024-04-14T02:17:38.213Z,610.00
2024-04-14T02:18:38.290Z,610.00
2024-04-14T02:19:38.075Z,613.00
2024-04-14T02:20:38.118Z,610.00
2024-04-14T02:21:38.189Z,608.00
2024-04-14T02:22:38.198Z,612.00
2024-04-14T02:23:38.233Z,608.00
2024-04-14T02:24:38.306Z,608.00
2024-04-14T02:25:38.327Z,612.00
2024-04-14T02:26:38.482Z,609.00
2024-04-14T02:27:38.476Z,608.00
2024-04-14T02:28:38.456Z,610.00
2024-04-14T02:29:38.500Z,609.00
2024-04-14T02:30:38.589Z,608.00
2024-04-14T02:31:38.577Z,611.00
2024-04-14T02:32:38.762Z,607.00
2024-04-14T02:33:38.759Z,607.00
2024-04-14T02:34:38.720Z,607.00
2024-04-14T02:35:38.774Z,608.00
2024-04-14T02:36:38.842Z,610.00
2024-04-14T02:37:38.866Z,605.00
2024-04-14T02:38:38.981Z,607.00
2024-04-14T02:39:38.986Z,608.00
2024-04-14T02:40:39.019Z,606.00
2024-04-14T02:41:39.075Z,605.00
2024-04-14T02:42:39.150Z,610.00
2024-04-14T02:43:39.170Z,607.00
2024-04-14T02:44:39.218Z,606.00
2024-04-14T02:45:39.291Z,605.00
2024-04-14T02:46:39.307Z,606.00
2024-04-14T02:47:39.426Z,606.00
2024-04-14T02:48:39.506Z,604.00
2024-04-14T02:49:39.474Z,607.00
2024-04-14T02:50:39.530Z,603.00
2024-04-14T02:51:39.603Z,605.00
2024-04-14T02:52:39.612Z,605.00
2024-04-14T02:53:39.658Z,605.00
2024-04-14T02:54:39.727Z,604.00
2024-04-14T02:55:39.763Z,607.00
2024-04-14T02:56:39.794Z,605.00
2024-04-14T02:57:39.870Z,608.00
2024-04-14T02:58:39.944Z,608.00
2024-04-14T02:59:39.942Z,606.00
2024-04-14T03:00:40.065Z,608.00
2024-04-14T03:01:40.055Z,604.00
2024-04-14T03:02:40.095Z,605.00
2024-04-14T03:03:40.263Z,605.00
2024-04-14T03:04:40.234Z,606.00
2024-04-14T03:05:40.248Z,603.00
2024-04-14T03:06:40.322Z,606.00
2024-04-14T03:07:40.348Z,605.00
2024-04-14T03:08:40.386Z,603.00
2024-04-14T03:09:40.478Z,607.00
2024-04-14T03:10:40.484Z,605.00
2024-04-14T03:11:40.534Z,603.00
2024-04-14T03:12:40.602Z,604.00
2024-04-14T03:13:40.641Z,604.00
2024-04-14T03:14:40.680Z,606.00
2024-04-14T03:15:40.727Z,601.00
2024-04-14T03:16:40.783Z,604.00
2024-04-14T03:17:40.897Z,602.00
2024-04-14T03:18:40.888Z,606.00
2024-04-14T03:19:40.925Z,603.00
2024-04-14T03:20:40.983Z,607.00
2024-04-14T03:21:41.046Z,604.00
2024-04-14T03:22:41.082Z,603.00
2024-04-14T03:23:41.131Z,604.00
2024-04-14T03:24:41.210Z,603.00
2024-04-14T03:25:41.233Z,602.00
2024-04-14T03:26:41.295Z,602.00
2024-04-14T03:27:41.359Z,602.00
2024-04-14T03:28:41.387Z,603.00
2024-04-14T03:29:41.438Z,602.00
2024-04-14T03:30:41.548Z,605.00
2024-04-14T03:31:41.607Z,603.00
2024-04-14T03:32:41.638Z,601.00
2024-04-14T03:33:41.663Z,602.00
2024-04-14T03:34:41.687Z,603.00
2024-04-14T03:35:41.739Z,601.00
2024-04-14T03:36:41.797Z,602.00
2024-04-14T03:37:41.842Z,600.00
2024-04-14T03:38:41.909Z,605.00
2024-04-14T03:39:42.037Z,603.00
2024-04-14T03:40:42.011Z,600.00
2024-04-14T03:41:42.110Z,605.00
2024-04-14T03:42:42.121Z,603.00
2024-04-14T03:43:42.165Z,606.00
2024-04-14T03:44:42.212Z,606.00
2024-04-14T03:45:42.309Z,603.00
2024-04-14T03:46:42.326Z,604.00
2024-04-14T03:47:42.392Z,601.00
2024-04-14T03:48:42.557Z,602.00
2024-04-14T03:49:42.482Z,601.00
2024-04-14T03:50:42.511Z,606.00
2024-04-14T03:51:42.632Z,603.00
2024-04-14T03:52:42.613Z,603.00
2024-04-14T03:53:42.666Z,604.00
2024-04-14T03:54:42.758Z,602.00
2024-04-14T03:55:42.813Z,604.00
2024-04-14T03:56:42.833Z,606.00
2024-04-14T03:57:42.945Z,606.00
2024-04-14T03:58:42.952Z,606.00
2024-04-14T03:59:43.001Z,602.00
2024-04-14T04:00:43.184Z,602.00
2024-04-14T04:01:43.133Z,604.00
2024-04-14T04:02:43.213Z,604.00
2024-04-14T04:03:43.365Z,606.00
2024-04-14T04:04:43.345Z,607.00
2024-04-14T04:05:43.340Z,605.00
2024-04-14T04:06:43.434Z,602.00
2024-04-14T04:07:43.454Z,607.00
2024-04-14T04:08:43.515Z,606.00
2024-04-14T04:09:43.575Z,604.00
2024-04-14T04:10:43.598Z,604.00
2024-04-14T04:11:43.654Z,606.00
2024-04-14T04:12:43.776Z,604.00
2024-04-14T04:13:43.754Z,602.00
2024-04-14T04:14:43.804Z,602.00
2024-04-14T04:15:43.895Z,604.00
2024-04-14T04:16:46.866Z,602.00
2024-04-14T04:17:44.002Z,607.00
2024-04-14T04:18:44.108Z,600.00
2024-04-14T04:19:43.952Z,601.00
2024-04-14T04:20:43.909Z,603.00
2024-04-14T04:21:43.981Z,601.00
2024-04-14T04:22:43.926Z,604.00
2024-04-14T04:23:43.936Z,604.00
2024-04-14T04:24:43.952Z,604.00
2024-04-14T04:25:43.930Z,603.00
2024-04-14T04:26:43.935Z,605.00
2024-04-14T04:27:43.991Z,604.00
2024-04-14T04:28:43.922Z,605.00
2024-04-14T04:29:43.943Z,602.00
2024-04-14T04:30:44.033Z,600.00
2024-04-14T04:31:43.940Z,601.00
2024-04-14T04:32:43.973Z,602.00
2024-04-14T04:33:44.151Z,602.00
2024-04-14T04:34:43.927Z,602.00
2024-04-14T04:35:43.930Z,604.00
2024-04-14T04:36:43.938Z,601.00
2024-04-14T04:37:51.213Z,600.00
2024-04-14T04:38:51.246Z,600.00
2024-04-14T04:39:51.278Z,600.00
2024-04-14T04:40:51.288Z,600.00
2024-04-14T04:41:51.321Z,600.00
2024-04-14T04:42:51.383Z,600.00
2024-04-14T04:43:51.427Z,602.00
2024-04-14T04:44:51.415Z,601.00
2024-04-14T04:45:51.516Z,602.00
2024-04-14T04:46:51.451Z,602.00
2024-04-14T04:47:51.524Z,602.00
2024-04-14T04:48:51.595Z,602.00
2024-04-14T04:49:51.528Z,601.00
2024-04-14T04:50:51.589Z,602.00
2024-04-14T04:51:51.610Z,601.00
2024-04-14T04:52:51.606Z,600.00
2024-04-14T04:53:51.644Z,605.00
2024-04-14T04:54:51.803Z,602.00
2024-04-14T04:55:51.706Z,601.00
2024-04-14T04:56:51.724Z,600.00
2024-04-14T04:57:51.774Z,600.00
2024-04-14T04:58:51.779Z,601.00
2024-04-14T04:59:51.808Z,600.00
2024-04-14T05:00:51.886Z,600.00
2024-04-14T05:01:51.869Z,607.00
2024-04-14T05:02:52.912Z,603.00
2024-04-14T05:03:51.981Z,603.00
2024-04-14T05:04:51.949Z,602.00
2024-04-14T05:05:51.968Z,604.00
2024-04-14T05:06:51.990Z,605.00
2024-04-14T05:07:52.012Z,609.00
2024-04-14T05:08:52.038Z,605.00
2024-04-14T05:09:52.084Z,605.00
2024-04-14T05:10:52.125Z,604.00
2024-04-14T05:11:52.108Z,605.00
2024-04-14T05:12:52.180Z,603.00
2024-04-14T05:13:52.169Z,603.00
2024-04-14T05:14:52.203Z,602.00
2024-04-14T05:15:52.323Z,603.00
2024-04-14T05:16:52.237Z,604.00
2024-04-14T05:17:52.397Z,602.00
2024-04-14T05:18:52.385Z,602.00
2024-04-14T05:19:52.313Z,602.00
2024-04-14T05:20:52.343Z,602.00
2024-04-14T05:21:52.407Z,603.00
2024-04-14T05:22:52.411Z,602.00
2024-04-14T05:23:52.428Z,600.00
2024-04-14T05:24:52.495Z,603.00
2024-04-14T05:25:52.481Z,601.00
2024-04-14T05:26:52.511Z,600.00
2024-04-14T05:27:52.595Z,603.00
2024-04-14T05:28:52.571Z,607.00
2024-04-14T05:29:52.601Z,602.00
2024-04-14T05:30:52.678Z,604.00
2024-04-14T05:31:52.661Z,604.00
2024-04-14T05:32:52.696Z,605.00
2024-04-14T05:33:52.777Z,603.00
2024-04-14T05:34:52.774Z,604.00
2024-04-14T05:35:52.761Z,600.00
2024-04-14T05:36:52.846Z,600.00
2024-04-14T05:37:52.829Z,604.00
2024-04-14T05:38:52.841Z,604.00
2024-04-14T05:39:52.886Z,602.00
2024-04-14T05:40:52.900Z,601.00
2024-04-14T05:41:52.934Z,601.00
2024-04-14T05:42:52.980Z,604.00
2024-04-14T05:43:52.979Z,602.00
2024-04-14T05:44:53.020Z,604.00
2024-04-14T05:45:53.055Z,604.00
2024-04-14T05:46:53.066Z,603.00
2024-04-14T05:47:53.223Z,602.00
2024-04-14T05:49:17.051Z,601.00
2024-04-14T05:49:54.970Z,602.00
2024-04-14T05:50:53.329Z,602.00
2024-04-14T05:51:53.443Z,603.00
2024-04-14T05:52:53.413Z,604.00
2024-04-14T05:53:53.469Z,606.00
2024-04-14T05:54:53.547Z,605.00
2024-04-14T05:55:53.548Z,603.00
2024-04-14T05:56:53.563Z,602.00
2024-04-14T05:57:53.626Z,604.00
2024-04-14T05:58:53.627Z,603.00
2024-04-14T05:59:53.668Z,603.00
2024-04-14T06:00:53.743Z,603.00
2024-04-14T06:01:53.810Z,603.00
2024-04-14T06:02:53.809Z,602.00
2024-04-14T06:03:53.934Z,601.00
2024-04-14T06:04:53.924Z,602.00
2024-04-14T06:05:53.927Z,602.00
2024-04-14T06:06:54.026Z,603.00
2024-04-14T06:07:54.003Z,601.00
2024-04-14T06:08:54.082Z,605.00
2024-04-14T06:09:54.154Z,605.00
2024-04-14T06:10:54.179Z,602.00
2024-04-14T06:11:54.199Z,603.00
2024-04-14T06:12:54.250Z,602.00
2024-04-14T06:13:54.289Z,601.00
2024-04-14T06:14:54.342Z,603.00
2024-04-14T06:15:54.465Z,603.00
2024-04-14T06:16:54.518Z,603.00
2024-04-14T06:17:54.531Z,600.00
2024-04-14T06:18:54.568Z,603.00
2024-04-14T06:19:54.548Z,603.00
2024-04-14T06:20:54.600Z,602.00
2024-04-14T06:21:54.691Z,603.00
2024-04-14T06:22:54.690Z,603.00
2024-04-14T06:23:54.734Z,604.00
2024-04-14T06:24:54.809Z,600.00
2024-04-14T06:25:54.834Z,600.00
2024-04-14T06:26:54.870Z,600.00
2024-04-14T06:27:54.967Z,600.00
2024-04-14T06:28:54.940Z,600.00
2024-04-14T06:29:54.971Z,602.00
2024-04-14T06:30:55.023Z,603.00
2024-04-14T06:31:55.038Z,603.00
2024-04-14T06:32:55.152Z,602.00
2024-04-14T06:33:55.231Z,602.00
2024-04-14T06:34:55.201Z,602.00
2024-04-14T06:35:55.198Z,602.00
2024-04-14T06:36:55.279Z,602.00
2024-04-14T06:37:55.277Z,601.00
2024-04-14T06:38:55.327Z,604.00
2024-04-14T06:39:55.408Z,602.00
2024-04-14T06:40:55.397Z,603.00
2024-04-14T06:41:55.432Z,600.00
2024-04-14T06:42:55.531Z,601.00
2024-04-14T06:43:55.519Z,601.00
2024-04-14T06:44:55.582Z,603.00
2024-04-14T06:45:55.961Z,602.00
2024-04-14T06:46:55.713Z,604.00
2024-04-14T06:47:55.742Z,602.00
2024-04-14T06:48:55.816Z,601.00
2024-04-14T06:49:55.853Z,600.00
2024-04-14T06:50:55.864Z,603.00
2024-04-14T06:51:55.971Z,602.00
2024-04-14T06:52:55.981Z,600.00
2024-04-14T06:53:56.047Z,602.00
2024-04-14T06:54:56.184Z,603.00
2024-04-14T06:55:56.165Z,601.00
2024-04-14T06:56:56.219Z,604.00
2024-04-14T06:57:56.354Z,600.00
2024-04-14T06:58:56.338Z,601.00
2024-04-14T06:59:56.380Z,602.00
2024-04-14T07:00:56.538Z,600.00
2024-04-14T07:01:56.707Z,602.00
2024-04-14T07:02:56.558Z,601.00
2024-04-14T07:03:56.747Z,604.00
2024-04-14T07:04:56.731Z,601.00
2024-04-14T07:05:56.715Z,603.00
2024-04-14T07:06:56.809Z,603.00
2024-04-14T07:07:56.798Z,603.00
2024-04-14T07:08:56.841Z,603.00
2024-04-14T07:09:57.118Z,603.00
2024-04-14T07:10:56.914Z,601.00
2024-04-14T07:11:56.951Z,602.00
2024-04-14T07:12:57.115Z,603.00
2024-04-14T07:13:57.046Z,603.00
2024-04-14T07:14:57.076Z,600.00
2024-04-14T07:15:57.184Z,602.00
2024-04-14T07:16:57.143Z,602.00
2024-04-14T07:17:57.269Z,602.00
2024-04-14T07:18:57.275Z,601.00
2024-04-14T07:19:57.293Z,603.00
2024-04-14T07:20:57.329Z,600.00
2024-04-14T07:21:57.432Z,602.00
2024-04-14T07:22:57.463Z,600.00
2024-04-14T07:23:57.446Z,600.00
2024-04-14T07:24:57.575Z,602.00
2024-04-14T07:25:57.512Z,601.00
2024-04-14T07:26:57.581Z,601.00
2024-04-14T07:27:57.757Z,600.00
2024-04-14T07:28:57.734Z,601.00
2024-04-14T07:29:57.813Z,601.00
2024-04-14T07:30:57.962Z,601.00
2024-04-14T07:31:57.985Z,602.00
2024-04-14T07:32:58.163Z,601.00
2024-04-14T07:33:58.129Z,604.00
2024-04-14T07:34:58.078Z,601.00
2024-04-14T07:35:58.121Z,600.00
2024-04-14T07:36:58.355Z,601.00
2024-04-14T07:37:58.147Z,602.00
2024-04-14T07:38:58.199Z,601.00
2024-04-14T07:39:58.232Z,603.00
2024-04-14T07:40:58.286Z,603.00
2024-04-14T07:41:58.231Z,601.00
2024-04-14T07:42:58.267Z,601.00
2024-04-14T07:43:58.264Z,601.00
2024-04-14T07:44:58.296Z,604.00
2024-04-14T07:45:58.351Z,602.00
2024-04-14T07:46:58.389Z,602.00
2024-04-14T07:47:58.527Z,603.00
2024-04-14T07:48:58.518Z,602.00
2024-04-14T07:49:58.514Z,603.00
2024-04-14T07:50:58.548Z,601.00
2024-04-14T07:51:58.697Z,601.00
2024-04-14T07:52:58.599Z,601.00
2024-04-14T07:53:58.619Z,603.00
2024-04-14T07:54:58.681Z,601.00
2024-04-14T07:55:58.706Z,601.00
2024-04-14T07:56:58.733Z,603.00
2024-04-14T07:57:58.877Z,602.00
2024-04-14T07:58:58.777Z,602.00
2024-04-14T07:59:58.825Z,604.00
2024-04-14T08:00:58.913Z,603.00
2024-04-14T08:01:58.837Z,606.00
2024-04-14T08:02:58.894Z,602.00
2024-04-14T08:03:58.996Z,603.00
2024-04-14T08:04:59.031Z,603.00
2024-04-14T08:05:58.904Z,601.00
2024-04-14T08:06:58.963Z,601.00
2024-04-14T08:07:58.981Z,603.00
2024-04-14T08:08:58.979Z,604.00
2024-04-14T08:09:59.108Z,600.00
2024-04-14T08:10:59.082Z,603.00
2024-04-14T08:11:59.089Z,604.00
2024-04-14T08:12:59.205Z,600.00
2024-04-14T08:13:59.140Z,601.00
2024-04-14T08:14:59.175Z,602.00
2024-04-14T08:15:59.315Z,603.00
2024-04-14T08:16:59.358Z,603.00
2024-04-14T08:17:59.379Z,602.00
2024-04-14T08:18:59.527Z,602.00
2024-04-14T08:19:59.470Z,602.00
2024-04-14T08:20:59.539Z,604.00
2024-04-14T08:21:59.649Z,604.00
2024-04-14T08:22:59.661Z,603.00
2024-04-14T08:23:59.708Z,601.00
2024-04-14T08:24:59.754Z,603.00
2024-04-14T08:25:59.790Z,601.00
2024-04-14T08:26:59.824Z,600.00
2024-04-14T08:27:59.947Z,603.00
2024-04-14T08:28:59.931Z,600.00
2024-04-14T08:29:59.958Z,604.00
2024-04-14T08:31:00.097Z,601.00
2024-04-14T08:32:00.060Z,601.00
2024-04-14T08:33:00.157Z,601.00
2024-04-14T08:34:00.273Z,601.00
2024-04-14T08:35:00.167Z,602.00
2024-04-14T08:36:00.175Z,604.00
2024-04-14T08:37:00.343Z,602.00
2024-04-14T08:38:00.238Z,602.00
2024-04-14T08:39:00.338Z,602.00
2024-04-14T08:40:00.500Z,600.00
2024-04-14T08:41:00.342Z,600.00
2024-04-14T08:42:00.375Z,601.00
2024-04-14T08:43:00.493Z,601.00
2024-04-14T08:44:00.439Z,603.00
2024-04-14T08:45:00.469Z,602.00
2024-04-14T08:46:00.502Z,606.00
2024-04-14T08:47:00.540Z,603.00
2024-04-14T08:48:00.551Z,601.00
2024-04-14T08:49:00.590Z,600.00
2024-04-14T08:50:00.590Z,602.00
2024-04-14T08:51:00.614Z,601.00
2024-04-14T08:52:00.719Z,601.00
2024-04-14T08:53:00.672Z,601.00
2024-04-14T08:54:00.728Z,603.00
2024-04-14T08:55:00.890Z,602.00
2024-04-14T08:56:00.782Z,603.00
2024-04-14T08:57:00.825Z,603.00
2024-04-14T08:58:00.961Z,601.00
2024-04-14T08:59:00.917Z,602.00
2024-04-14T09:00:00.920Z,604.00
2024-04-14T09:01:01.032Z,603.00
2024-04-14T09:02:01.110Z,602.00
2024-04-14T09:03:01.068Z,603.00
2024-04-14T09:04:01.220Z,601.00
2024-04-14T09:05:01.148Z,602.00
2024-04-14T09:06:01.207Z,602.00
2024-04-14T09:07:01.293Z,600.00
2024-04-14T09:08:01.320Z,603.00
2024-04-14T09:09:01.391Z,601.00
2024-04-14T09:10:01.461Z,602.00
2024-04-14T09:11:01.462Z,600.00
2024-04-14T09:12:01.437Z,602.00
2024-04-14T09:13:01.562Z,602.00
2024-04-14T09:14:01.563Z,603.00
2024-04-14T09:15:01.595Z,603.00
2024-04-14T09:16:01.763Z,601.00
2024-04-14T09:17:01.785Z,601.00
2024-04-14T09:18:01.771Z,600.00
2024-04-14T09:19:01.930Z,602.00
2024-04-14T09:20:01.882Z,602.00
2024-04-14T09:21:01.928Z,602.00
2024-04-14T09:22:02.042Z,602.00
2024-04-14T09:23:02.041Z,607.00
2024-04-14T09:24:02.100Z,603.00
2024-04-14T09:25:02.203Z,604.00
2024-04-14T09:26:02.216Z,602.00
2024-04-14T09:27:02.292Z,602.00
2024-04-14T09:28:02.472Z,602.00
2024-04-14T09:29:02.447Z,601.00
2024-04-14T09:30:02.552Z,601.00
2024-04-14T09:31:02.686Z,601.00
2024-04-14T09:32:05.663Z,601.00
2024-04-14T09:33:03.473Z,604.00
2024-04-14T09:34:02.844Z,605.00
2024-04-14T09:35:02.768Z,605.00
2024-04-14T09:36:02.785Z,602.00
2024-04-14T09:37:02.826Z,601.00
2024-04-14T09:38:02.883Z,603.00
2024-04-14T09:39:02.849Z,603.00
2024-04-14T09:40:02.922Z,603.00
2024-04-14T09:41:02.909Z,600.00
2024-04-14T09:42:02.912Z,600.00
2024-04-14T09:43:03.004Z,600.00
2024-04-14T09:44:02.993Z,603.00
2024-04-14T09:45:02.971Z,603.00
2024-04-14T09:46:03.116Z,601.00
2024-04-14T09:47:03.056Z,602.00
2024-04-14T09:48:03.080Z,600.00
2024-04-14T09:49:03.391Z,602.00
2024-04-14T09:50:03.095Z,602.00
2024-04-14T09:51:03.137Z,600.00
2024-04-14T09:52:03.229Z,603.00
2024-04-14T09:53:03.148Z,602.00
2024-04-14T09:54:03.178Z,603.00
2024-04-14T09:55:03.309Z,603.00
2024-04-14T09:56:03.217Z,603.00
2024-04-14T09:57:03.239Z,603.00
2024-04-14T09:58:03.328Z,602.00
2024-04-14T09:59:03.298Z,604.00
2024-04-14T10:00:03.324Z,600.00
2024-04-14T10:01:03.441Z,601.00
2024-04-14T10:02:03.506Z,602.00
2024-04-14T10:03:03.386Z,601.00
2024-04-14T10:04:03.586Z,604.00
2024-04-14T10:05:03.480Z,601.00
2024-04-14T10:06:03.549Z,601.00
2024-04-14T10:07:03.763Z,602.00
2024-04-14T10:08:03.722Z,600.00
2024-04-14T10:09:03.783Z,601.00
2024-04-14T10:10:03.943Z,602.00
2024-04-14T10:11:03.952Z,602.00
2024-04-14T10:12:04.006Z,602.00
2024-04-14T10:13:04.197Z,600.00
2024-04-14T10:14:04.181Z,601.00
2024-04-14T10:15:07.310Z,602.00
2024-04-14T10:16:04.466Z,603.00
2024-04-14T10:17:04.328Z,603.00
2024-04-14T10:18:04.342Z,604.00
2024-04-14T10:19:04.504Z,604.00
2024-04-14T10:20:04.361Z,605.00
2024-04-14T10:21:04.381Z,605.00
2024-04-14T10:22:04.479Z,604.00
2024-04-14T10:23:04.420Z,604.00
2024-04-14T10:24:04.441Z,602.00
2024-04-14T10:25:04.629Z,604.00
2024-04-14T10:26:04.498Z,601.00
2024-04-14T10:27:04.539Z,602.00
2024-04-14T10:28:04.685Z,601.00
2024-04-14T10:29:04.578Z,604.00
2024-04-14T10:30:04.608Z,603.00
2024-04-14T10:31:04.984Z,602.00
2024-04-14T10:32:04.743Z,604.00
2024-04-14T10:33:04.907Z,603.00
2024-04-14T10:34:05.066Z,601.00
2024-04-14T10:35:04.998Z,603.00
2024-04-14T10:36:05.107Z,603.00
2024-04-14T10:37:05.170Z,603.00
2024-04-14T10:38:05.297Z,603.00
2024-04-14T10:39:05.446Z,602.00
2024-04-14T10:40:05.449Z,601.00
2024-04-14T10:41:05.508Z,601.00
2024-04-14T10:42:05.592Z,602.00
2024-04-14T10:43:05.786Z,603.00
2024-04-14T10:44:05.746Z,603.00
2024-04-14T10:45:05.819Z,601.00
2024-04-14T10:46:05.977Z,603.00
2024-04-14T10:47:05.992Z,602.00
2024-04-14T10:48:06.141Z,600.00
2024-04-14T10:49:06.279Z,603.00
2024-04-14T10:50:06.237Z,604.00
2024-04-14T10:51:06.302Z,600.00
2024-04-14T10:52:06.430Z,602.00
2024-04-14T10:53:06.451Z,602.00
2024-04-14T10:54:06.544Z,604.00
2024-04-14T10:55:06.646Z,600.00
2024-04-14T10:56:06.690Z,601.00
2024-04-14T10:57:06.795Z,601.00
2024-04-14T10:58:06.926Z,601.00
2024-04-14T10:59:06.952Z,600.00
2024-04-14T11:00:07.027Z,602.00
2024-04-14T11:01:07.152Z,602.00
2024-04-14T11:02:07.198Z,602.00
2024-04-14T11:03:07.326Z,602.00
2024-04-14T11:04:07.419Z,601.00
2024-04-14T11:05:07.451Z,602.00
2024-04-14T11:06:07.528Z,600.00
2024-04-14T11:07:07.640Z,601.00
2024-04-14T11:08:09.784Z,602.00
2024-04-14T11:09:07.693Z,606.00
2024-04-14T11:10:07.769Z,605.00
2024-04-14T11:11:07.773Z,603.00
2024-04-14T11:12:07.754Z,603.00
2024-04-14T11:13:07.812Z,603.00
2024-04-14T11:14:07.798Z,602.00
2024-04-14T11:15:10.469Z,601.00
2024-04-14T11:16:07.908Z,602.00
2024-04-14T11:17:07.842Z,602.00
2024-04-14T11:18:07.874Z,603.00
2024-04-14T11:19:07.973Z,605.00
2024-04-14T11:20:07.988Z,604.00
2024-04-14T11:21:07.896Z,603.00
2024-04-14T11:22:07.967Z,603.00
2024-04-14T11:23:07.968Z,603.00
2024-04-14T11:24:07.947Z,602.00
2024-04-14T11:25:08.053Z,602.00
2024-04-14T11:26:07.985Z,603.00
2024-04-14T11:27:08.010Z,603.00
2024-04-14T11:28:08.088Z,602.00
2024-04-14T11:29:08.052Z,602.00
2024-04-14T11:30:08.042Z,602.00
2024-04-14T11:31:08.097Z,601.00
2024-04-14T11:32:08.089Z,602.00
2024-04-14T11:33:08.258Z,601.00
2024-04-14T11:34:11.476Z,602.00
2024-04-14T11:35:08.121Z,603.00
2024-04-14T11:36:08.147Z,603.00
2024-04-14T11:37:08.183Z,603.00
2024-04-14T11:38:08.175Z,604.00
2024-04-14T11:39:08.180Z,603.00
2024-04-14T11:40:11.343Z,602.00
2024-04-14T11:41:08.211Z,602.00
2024-04-14T11:42:08.220Z,603.00
2024-04-14T11:43:08.297Z,604.00
2024-04-14T11:44:08.229Z,604.00
2024-04-14T11:45:08.254Z,605.00
2024-04-14T11:46:11.056Z,604.00
2024-04-14T11:47:08.352Z,604.00
2024-04-14T11:48:08.335Z,605.00
2024-04-14T11:49:08.309Z,605.00
2024-04-14T11:50:08.354Z,604.00
2024-04-14T11:51:08.326Z,606.00
2024-04-14T11:52:10.601Z,605.00
2024-04-14T11:53:08.385Z,605.00
2024-04-14T11:54:08.473Z,605.00
2024-04-14T11:55:08.718Z,606.00
2024-04-14T11:56:08.637Z,606.00
2024-04-14T11:57:08.719Z,605.00
2024-04-14T11:58:08.850Z,605.00
2024-04-14T11:59:08.866Z,605.00
2024-04-14T12:00:08.902Z,604.00
2024-04-14T12:01:09.034Z,603.00
2024-04-14T12:02:09.029Z,605.00
2024-04-14T12:03:09.118Z,605.00
2024-04-14T12:04:09.249Z,604.00
2024-04-14T12:05:09.230Z,603.00
2024-04-14T12:06:10.764Z,603.00
2024-04-14T12:07:09.372Z,603.00
2024-04-14T12:08:09.411Z,603.00
2024-04-14T12:09:09.479Z,605.00
2024-04-14T12:10:09.598Z,603.00
2024-04-14T12:11:09.684Z,602.00
2024-04-14T12:12:11.298Z,600.00
2024-04-14T12:13:09.787Z,601.00
2024-04-14T12:14:09.834Z,601.00
2024-04-14T12:15:09.896Z,602.00
2024-04-14T12:16:09.987Z,602.00
2024-04-14T12:17:10.028Z,602.00
2024-04-14T12:18:11.351Z,601.00
2024-04-14T12:19:10.235Z,602.00
2024-04-14T12:20:10.255Z,602.00
2024-04-14T12:21:10.312Z,601.00
2024-04-14T12:22:10.475Z,602.00
2024-04-14T12:23:10.451Z,603.00
2024-04-14T12:24:11.447Z,603.00
2024-04-14T12:25:10.669Z,600.00
2024-04-14T12:26:10.657Z,603.00
2024-04-14T12:27:10.728Z,602.00
2024-04-14T12:28:10.863Z,601.00
2024-04-14T12:29:10.860Z,603.00